Time;durP1;ratioP1;P1;durP2;ratioP2;P2;SDS_P1;SDS_P2;PMS_P1;PMS_P2;Temp;Humidity;BMP_temperature;BMP_pressure;BME280_temperature;BME280_humidity;BME280_pressure;Samples;Min_cycle;Max_cycle;Signal;HPM_P1;HPM_P2
2021/05/25 00:01:03;;;;;;;;;;;;;;;21.02;43.84;100768.63;2212577;39;114351;-51
2021/05/25 00:02:35;;;;;;;;;;;;;;;20.99;43.81;100766.41;2216285;39;113655;-51
2021/05/25 00:04:07;;;;;;;;;;;;;;;20.98;44.27;100778.81;2208250;39;113927;-52
2021/05/25 00:05:39;;;;;;;;;;;;;;;20.98;44.13;100774.03;2214491;39;113854;-52
2021/05/25 00:07:11;;;;;;;;;;;;;;;20.97;44.32;100774.34;2216418;39;113723;-52
2021/05/25 00:08:43;;;;;;;;;;;;;;;20.95;44.13;100779.44;2217147;39;113744;-52
2021/05/25 00:10:15;;;;;;;;;;;;;;;20.94;44.31;100780.59;2217251;39;113813;-52
2021/05/25 00:11:46;;;;;;;;;;;;;;;20.93;44.22;100788.19;2218900;39;113530;-53
2021/05/25 00:13:18;;;;;;;;;;;;;;;20.93;44.21;100782.56;2214138;39;115045;-56
2021/05/25 00:14:50;;;;;;;;;;;;;;;20.90;44.67;100785.16;2216672;39;113978;-52
2021/05/25 00:16:21;;;;;;;;;;;;;;;20.88;44.46;100784.66;2216991;39;115274;-52
2021/05/25 00:17:53;;;;;;;;;;;;;;;20.87;44.50;100786.63;2212687;39;114751;-52
2021/05/25 00:19:25;;;;;;;;;;;;;;;20.84;44.72;100790.91;2208232;39;114776;-53
2021/05/25 00:20:57;;;;;;;;;;;;;;;20.83;44.38;100791.22;2209982;39;115095;-52
2021/05/25 00:22:28;;;;;;;;;;;;;;;20.82;44.70;100789.56;2214978;39;114871;-53
2021/05/25 00:24:01;;;;;;;;;;;;;;;20.81;44.68;100790.69;2209874;39;114818;-52
2021/05/25 00:25:32;;;;;;;;;;;;;;;20.79;44.68;100791.03;2212584;39;114802;-51
2021/05/25 00:27:04;;;;;;;;;;;;;;;20.78;44.66;100791.34;2202694;39;114886;-53
2021/05/25 00:28:36;;;;;;;;;;;;;;;20.76;45.00;100799.22;2211959;39;115118;-52
2021/05/25 00:30:09;;;;;;;;;;;;;;;20.74;45.11;100791.13;2215514;39;115200;-53
2021/05/25 00:31:41;;;;;;;;;;;;;;;20.73;44.68;100791.44;2204878;39;114783;-52
2021/05/25 00:33:13;;;;;;;;;;;;;;;20.71;44.73;100797.38;2205274;39;114874;-53
2021/05/25 00:34:45;;;;;;;;;;;;;;;20.72;45.06;100806.63;2210272;39;115712;-52
2021/05/25 00:36:16;;;;;;;;;;;;;;;20.69;44.90;100810.88;2215747;39;115651;-52
2021/05/25 00:37:48;;;;;;;;;;;;;;;20.69;44.88;100796.84;2206871;39;115073;-52
2021/05/25 00:39:20;;;;;;;;;;;;;;;20.69;45.06;100801.63;2206689;39;115775;-52
2021/05/25 00:40:52;;;;;;;;;;;;;;;20.69;45.05;100807.25;2212868;39;115783;-52
2021/05/25 00:42:24;;;;;;;;;;;;;;;20.67;44.75;100801.94;2204661;39;115193;-52
2021/05/25 00:43:55;;;;;;;;;;;;;;;20.66;45.11;100808.72;2209866;39;116365;-52
2021/05/25 00:45:27;;;;;;;;;;;;;;;20.65;44.80;100812.66;2213340;39;115969;-53
2021/05/25 00:46:59;;;;;;;;;;;;;;;20.63;44.91;100808.50;2213147;39;116395;-52
2021/05/25 00:48:31;;;;;;;;;;;;;;;20.63;45.18;100814.94;2216998;39;115518;-53
2021/05/25 00:51:39;;;;;;;;;;;;;;;20.61;44.83;100811.63;2206954;39;115578;-52
2021/05/25 00:53:11;;;;;;;;;;;;;;;20.60;44.63;100817.53;2212337;39;115738;-53
2021/05/25 00:54:43;;;;;;;;;;;;;;;20.58;44.88;100819.84;2217754;39;115588;-52
2021/05/25 00:56:14;;;;;;;;;;;;;;;20.60;44.25;100821.19;2209106;39;114026;-52
2021/05/25 00:57:48;;;;;;;;;;;;;;;20.57;44.55;100821.00;2207107;39;113793;-53
2021/05/25 00:59:19;;;;;;;;;;;;;;;20.55;44.84;100821.28;2212522;39;113805;-53
2021/05/25 01:00:51;;;;;;;;;;;;;;;20.55;44.54;100818.47;2215446;39;113789;-53
2021/05/25 01:02:23;;;;;;;;;;;;;;;20.53;44.48;100822.75;2217312;39;114165;-51
2021/05/25 01:03:55;;;;;;;;;;;;;;;20.53;44.48;100822.75;2217686;39;113599;-52
2021/05/25 01:05:27;;;;;;;;;;;;;;;20.53;44.73;100829.22;2204065;39;113821;-53
2021/05/25 01:06:59;;;;;;;;;;;;;;;20.53;44.35;100831.19;2204425;39;113658;-53
2021/05/25 01:08:32;;;;;;;;;;;;;;;20.51;44.37;100830.63;2214881;39;113778;-55
2021/05/25 01:10:06;;;;;;;;;;;;;;;20.49;44.36;100833.75;2214315;39;113960;-53
2021/05/25 01:11:40;;;;;;;;;;;;;;;20.49;44.54;100842.16;2216168;39;114139;-53
2021/05/25 01:13:16;;;;;;;;;;;;;;;20.50;44.78;100843.00;2210079;39;113797;-53
2021/05/25 01:14:53;;;;;;;;;;;;;;;20.49;44.38;100833.75;2215790;39;113782;-54
2021/05/25 01:16:27;;;;;;;;;;;;;;;20.47;44.69;100830.44;2219296;39;113924;-53
2021/05/25 01:17:59;;;;;;;;;;;;;;;20.48;44.96;100839.69;2211403;39;114782;-53
2021/05/25 01:19:30;;;;;;;;;;;;;;;20.47;44.54;100836.06;2217641;39;115257;-53
2021/05/25 01:21:05;;;;;;;;;;;;;;;20.46;44.71;100848.41;2217520;39;114783;-52
2021/05/25 01:22:37;;;;;;;;;;;;;;;20.46;44.91;100842.81;2208723;39;115036;-53
2021/05/25 01:24:10;;;;;;;;;;;;;;;20.46;44.84;100841.97;2208652;39;113944;-53
2021/05/25 01:25:45;;;;;;;;;;;;;;;20.46;44.98;100850.38;2214875;39;114402;-53
2021/05/25 01:27:17;;;;;;;;;;;;;;;20.45;44.94;100851.53;2209982;39;115613;-53
2021/05/25 01:28:49;;;;;;;;;;;;;;;20.44;44.72;100847.06;2208047;39;114264;-52
2021/05/25 01:30:22;;;;;;;;;;;;;;;20.42;44.81;100855.78;2208157;39;115166;-52
2021/05/25 01:31:54;;;;;;;;;;;;;;;20.44;44.73;100847.91;2204492;39;115028;-53
2021/05/25 01:33:28;;;;;;;;;;;;;;;20.42;44.52;100855.78;2215353;39;114825;-52
2021/05/25 01:35:00;;;;;;;;;;;;;;;20.42;44.63;100848.22;2214194;39;113845;-53
2021/05/25 01:36:31;;;;;;;;;;;;;;;20.42;44.83;100853.00;2212365;39;115190;-52
2021/05/25 01:38:05;;;;;;;;;;;;;;;20.39;44.73;100862.03;2213104;39;114694;-53
2021/05/25 01:39:36;;;;;;;;;;;;;;;20.36;44.93;100863.47;2205009;39;114616;-52
2021/05/25 01:41:09;;;;;;;;;;;;;;;20.34;44.96;100860.16;2210568;39;116129;-53
2021/05/25 01:42:41;;;;;;;;;;;;;;;20.35;44.92;100853.38;2215391;39;115473;-52
2021/05/25 01:44:13;;;;;;;;;;;;;;;20.34;45.01;100864.94;2216342;39;115580;-53
2021/05/25 01:45:45;;;;;;;;;;;;;;;20.34;44.72;100856.50;2216188;39;115729;-53
2021/05/25 01:47:17;;;;;;;;;;;;;;;20.34;44.82;100862.13;2215434;39;115340;-53
2021/05/25 01:48:49;;;;;;;;;;;;;;;20.33;44.77;100864.09;2216600;39;115491;-52
2021/05/25 01:50:21;;;;;;;;;;;;;;;20.33;44.77;100866.06;2217992;39;114528;-52
2021/05/25 01:51:53;;;;;;;;;;;;;;;20.30;45.03;100870.34;2214424;39;115944;-52
2021/05/25 01:53:26;;;;;;;;;;;;;;;20.30;44.51;100870.34;2212789;39;114751;-53
2021/05/25 01:54:58;;;;;;;;;;;;;;;20.30;44.44;100869.50;2217449;39;115826;-53
2021/05/25 01:56:30;;;;;;;;;;;;;;;20.27;44.49;100872.88;2203866;39;115445;-53
2021/05/25 01:58:03;;;;;;;;;;;;;;;20.28;44.52;100874.53;2203386;39;115536;-52
2021/05/25 01:59:35;;;;;;;;;;;;;;;20.27;44.69;100872.88;2214758;39;114662;-53
2021/05/25 02:01:08;;;;;;;;;;;;;;;20.26;44.50;100882.44;2216590;39;116126;-53
2021/05/25 02:02:39;;;;;;;;;;;;;;;20.25;44.71;100881.63;2217330;39;114135;-53
2021/05/25 02:04:11;;;;;;;;;;;;;;;20.24;44.63;100882.75;2216649;39;114014;-52
2021/05/25 02:05:45;;;;;;;;;;;;;;;20.21;44.73;100880.56;2217815;39;113576;-53
2021/05/25 02:07:18;;;;;;;;;;;;;;;20.22;44.62;100884.19;2208478;39;113929;-52
2021/05/25 02:08:49;;;;;;;;;;;;;;;20.20;44.62;100890.13;2210857;39;113893;-53
2021/05/25 02:10:23;;;;;;;;;;;;;;;20.20;44.46;100890.13;2214638;39;113701;-53
2021/05/25 02:11:55;;;;;;;;;;;;;;;20.20;44.50;100895.72;2213230;39;114045;-53
2021/05/25 02:13:28;;;;;;;;;;;;;;;20.19;44.43;100896.88;2214351;39;113982;-54
2021/05/25 02:14:59;;;;;;;;;;;;;;;20.19;44.57;100890.41;2214715;39;113784;-52
2021/05/25 02:16:31;;;;;;;;;;;;;;;20.18;44.28;100894.34;2207895;39;113805;-52
2021/05/25 02:18:05;;;;;;;;;;;;;;;20.17;44.54;100892.72;2209071;39;113824;-53
2021/05/25 02:19:37;;;;;;;;;;;;;;;20.18;44.25;100895.19;2204450;39;113843;-52
2021/05/25 02:21:09;;;;;;;;;;;;;;;20.15;44.47;100900.59;2208337;39;113822;-53
2021/05/25 02:22:41;;;;;;;;;;;;;;;20.16;45.03;100899.47;2211209;39;114058;-53
2021/05/25 02:24:12;;;;;;;;;;;;;;;20.16;44.50;100902.25;2211091;39;114844;-53
2021/05/25 02:25:44;;;;;;;;;;;;;;;20.13;44.57;100908.47;2210299;39;115592;-51
2021/05/25 02:27:16;;;;;;;;;;;;;;;20.15;44.47;100903.41;2203132;39;115527;-52
2021/05/25 02:28:48;;;;;;;;;;;;;;;20.14;44.60;100901.72;2207608;39;115568;-53
2021/05/25 02:30:20;;;;;;;;;;;;;;;20.13;44.33;100905.66;2210078;39;114851;-54
2021/05/25 02:31:51;;;;;;;;;;;;;;;20.12;44.55;100904.84;2210905;39;114965;-53
2021/05/25 02:33:24;;;;;;;;;;;;;;;20.13;44.59;100909.31;2204114;39;113999;-53
2021/05/25 02:34:56;;;;;;;;;;;;;;;20.13;44.72;100908.47;2204039;39;115028;-53
2021/05/25 02:36:28;;;;;;;;;;;;;;;20.13;44.63;100917.72;2205039;39;114880;-53
2021/05/25 02:38:05;;;;;;;;;;;;;;;20.13;44.67;100922.50;2208727;39;115020;-53
2021/05/25 02:39:37;;;;;;;;;;;;;;;20.10;44.43;100921.16;2203078;39;113867;-52
2021/05/25 02:41:08;;;;;;;;;;;;;;;20.13;44.55;100916.88;2205662;39;114890;-53
2021/05/25 02:42:40;;;;;;;;;;;;;;;20.12;44.54;100918.06;2202238;39;115221;-53
2021/05/25 02:44:12;;;;;;;;;;;;;;;20.10;44.63;100921.16;2209629;39;114835;-53
2021/05/25 02:45:43;;;;;;;;;;;;;;;20.08;44.39;100922.59;2208764;39;115698;-52
2021/05/25 02:47:15;;;;;;;;;;;;;;;20.06;44.64;100922.06;2208949;39;115053;-52
2021/05/25 02:48:47;;;;;;;;;;;;;;;20.07;44.60;100918.97;2207646;39;115458;-53
2021/05/25 02:50:19;;;;;;;;;;;;;;;20.08;44.73;100917.00;2207210;39;114533;-53
2021/05/25 02:51:51;;;;;;;;;;;;;;;20.07;44.56;100915.31;2207004;39;115756;-52
2021/05/25 02:53:23;;;;;;;;;;;;;;;20.04;44.87;100922.38;2208736;39;115488;-53
2021/05/25 02:54:54;;;;;;;;;;;;;;;20.07;44.66;100923.75;2209439;39;114547;-53
2021/05/25 02:56:26;;;;;;;;;;;;;;;20.03;44.73;100922.69;2208459;39;115244;-52
2021/05/25 02:57:58;;;;;;;;;;;;;;;20.03;44.68;100929.13;2208424;39;114757;-52
2021/05/25 02:59:30;;;;;;;;;;;;;;;20.04;44.96;100932.75;2206157;39;115836;-53
2021/05/25 03:01:02;;;;;;;;;;;;;;;20.03;44.61;100931.09;2208090;39;115036;-52
2021/05/25 03:02:34;;;;;;;;;;;;;;;20.03;44.84;100925.50;2209692;39;115647;-53
2021/05/25 03:04:06;;;;;;;;;;;;;;;20.02;44.42;100923.81;2207499;39;115406;-54
2021/05/25 03:05:38;;;;;;;;;;;;;;;19.99;44.99;100928.88;2212550;39;115630;-56
2021/05/25 03:07:09;;;;;;;;;;;;;;;20.02;44.64;100935.03;2209639;39;114805;-52
2021/05/25 03:08:41;;;;;;;;;;;;;;;19.99;44.62;100936.47;2207782;39;113815;-52
2021/05/25 03:10:15;;;;;;;;;;;;;;;19.98;44.76;100924.44;2207466;39;113624;-53
2021/05/25 03:11:46;;;;;;;;;;;;;;;19.95;44.73;100936.25;2202235;39;114004;-54
2021/05/25 03:13:18;;;;;;;;;;;;;;;19.95;44.96;100936.25;2210357;39;113866;-53
2021/05/25 03:14:50;;;;;;;;;;;;;;;19.94;44.81;100945.00;2210264;39;113766;-53
2021/05/25 03:16:22;;;;;;;;;;;;;;;19.94;44.85;100942.19;2210468;39;113694;-52
2021/05/25 03:17:53;;;;;;;;;;;;;;;19.93;44.94;100941.34;2209527;39;113969;-53
2021/05/25 03:19:25;;;;;;;;;;;;;;;19.93;44.67;100938.53;2207789;39;113917;-53
2021/05/25 03:20:57;;;;;;;;;;;;;;;19.91;45.17;100940.81;2209803;39;114707;-53
2021/05/25 03:22:29;;;;;;;;;;;;;;;19.91;45.32;100942.78;2208765;39;114375;-53
2021/05/25 03:24:01;;;;;;;;;;;;;;;19.90;44.99;100941.09;2206261;39;113716;-52
2021/05/25 03:25:32;;;;;;;;;;;;;;;19.91;45.06;100951.19;2207648;39;113494;-53
2021/05/25 03:27:04;;;;;;;;;;;;;;;19.92;44.95;100947.25;2205237;39;113573;-53
2021/05/25 03:28:36;;;;;;;;;;;;;;;19.89;44.86;100947.88;2209832;39;113948;-52
2021/05/25 03:30:09;;;;;;;;;;;;;;;19.90;45.16;100952.31;2208158;39;114920;-52
2021/05/25 03:31:41;;;;;;;;;;;;;;;19.89;44.97;100943.09;2205749;39;114800;-53
2021/05/25 03:33:13;;;;;;;;;;;;;;;19.88;45.17;100949.84;2208733;39;114026;-52
2021/05/25 03:34:45;;;;;;;;;;;;;;;19.86;45.08;100952.09;2208006;39;113611;-52
2021/05/25 03:36:16;;;;;;;;;;;;;;;19.87;45.11;100950.97;2207787;39;115121;-53
2021/05/25 03:37:49;;;;;;;;;;;;;;;19.85;45.28;100944.81;2207556;39;114977;-51
2021/05/25 03:39:20;;;;;;;;;;;;;;;19.86;45.10;100942.84;2208295;39;114305;-52
2021/05/25 03:40:52;;;;;;;;;;;;;;;19.83;45.26;100955.53;2210308;39;114823;-52
2021/05/25 03:42:24;;;;;;;;;;;;;;;19.84;45.26;100950.75;2209022;39;114809;-52
2021/05/25 03:43:55;;;;;;;;;;;;;;;19.83;45.17;100952.72;2207872;39;114743;-52
2021/05/25 03:45:27;;;;;;;;;;;;;;;19.81;45.50;100954.97;2207085;39;114022;-52
2021/05/25 03:47:00;;;;;;;;;;;;;;;19.81;45.12;100957.78;2208285;39;116042;-53
2021/05/25 03:48:31;;;;;;;;;;;;;;;19.83;45.19;100958.31;2203746;39;115280;-52
2021/05/25 03:51:38;;;;;;;;;;;;;;;19.79;45.07;100962.88;2209346;39;114346;-52
2021/05/25 03:53:10;;;;;;;;;;;;;;;19.78;45.33;100957.56;2204253;39;116013;-52
2021/05/25 03:56:30;;;;;;;;;;;;;;;19.79;45.33;100964.84;2207520;39;115363;-52
2021/05/25 03:59:37;;;;;;;;;;;;;;;19.77;45.30;100967.94;2208362;39;114600;-53
2021/05/25 04:01:09;;;;;;;;;;;;;;;19.76;45.39;100963.47;2210304;39;115876;-53
2021/05/25 04:02:40;;;;;;;;;;;;;;;19.75;45.55;100961.81;2199908;39;115713;-53
2021/05/25 04:04:12;;;;;;;;;;;;;;;19.74;45.17;100968.53;2211234;39;116125;-53
2021/05/25 04:05:44;;;;;;;;;;;;;;;19.76;45.16;100965.44;2211158;39;114801;-53
2021/05/25 04:07:16;;;;;;;;;;;;;;;19.75;45.60;100966.59;2209294;39;115789;-53
2021/05/25 04:08:47;;;;;;;;;;;;;;;19.73;45.33;100964.06;2209507;39;115828;-52
2021/05/25 04:10:19;;;;;;;;;;;;;;;19.70;45.15;100970.28;2210170;39;115462;-53
2021/05/25 04:11:51;;;;;;;;;;;;;;;19.72;45.35;100972.78;2211442;39;115740;-53
2021/05/25 04:13:23;;;;;;;;;;;;;;;19.71;45.28;100973.94;2209472;39;114625;-52
2021/05/25 04:14:54;;;;;;;;;;;;;;;19.70;45.51;100975.91;2209913;39;113886;-52
2021/05/25 04:16:26;;;;;;;;;;;;;;;19.67;45.58;100976.47;2208902;39;113870;-53
2021/05/25 04:17:58;;;;;;;;;;;;;;;19.70;45.34;100983.47;2206398;39;114442;-53
2021/05/25 04:19:29;;;;;;;;;;;;;;;19.67;45.75;100973.69;2211563;39;113880;-52
2021/05/25 04:21:01;;;;;;;;;;;;;;;19.70;45.53;100975.06;2209449;39;114025;-52
2021/05/25 04:22:33;;;;;;;;;;;;;;;19.68;45.36;100975.34;2209706;39;113836;-52
2021/05/25 04:24:06;;;;;;;;;;;;;;;19.67;45.61;100973.69;2209855;39;115332;-53
2021/05/25 04:25:37;;;;;;;;;;;;;;;19.73;46.20;100980.91;2209779;39;113635;-53
2021/05/25 04:27:09;;;;;;;;;;;;;;;19.77;46.13;100989.53;2210225;39;114206;-52
2021/05/25 04:28:41;;;;;;;;;;;;;;;19.80;45.89;100981.38;2209098;39;113835;-53
2021/05/25 04:30:13;;;;;;;;;;;;;;;19.82;45.76;100989.44;2208941;39;113995;-53
2021/05/25 04:31:45;;;;;;;;;;;;;;;19.82;46.05;100993.09;2208075;39;114080;-53
2021/05/25 04:33:17;;;;;;;;;;;;;;;19.83;45.78;100982.72;2211614;39;114325;-53
2021/05/25 04:34:48;;;;;;;;;;;;;;;19.83;45.75;100983.56;2202806;39;114804;-53
2021/05/25 04:36:20;;;;;;;;;;;;;;;19.89;45.84;101004.78;2203477;39;115234;-52
2021/05/25 04:37:52;;;;;;;;;;;;;;;19.89;45.70;101016.00;2209344;39;115491;-53
2021/05/25 04:39:24;;;;;;;;;;;;;;;19.92;45.79;101011.75;2209153;39;114982;-53
2021/05/25 04:40:55;;;;;;;;;;;;;;;19.92;45.80;101012.59;2210035;39;114779;-56
2021/05/25 04:42:27;;;;;;;;;;;;;;;19.96;46.12;101027.66;2209501;39;115619;-53
2021/05/25 04:43:59;;;;;;;;;;;;;;;19.99;46.21;101027.03;2209878;39;115384;-52
2021/05/25 04:45:30;;;;;;;;;;;;;;;20.03;46.14;101024.50;2209547;39;114911;-54
2021/05/25 04:47:02;;;;;;;;;;;;;;;20.06;46.31;101021.06;2207147;39;113859;-52
2021/05/25 04:48:34;;;;;;;;;;;;;;;20.10;46.44;101018.50;2209641;39;114207;-53
2021/05/25 04:50:08;;;;;;;;;;;;;;;20.15;46.71;101015.59;2207636;39;114476;-52
2021/05/25 04:51:40;;;;;;;;;;;;;;;20.19;46.56;101019.47;2207340;39;115006;-53
2021/05/25 04:53:11;;;;;;;;;;;;;;;20.22;46.58;101022.50;2208647;39;114818;-53
2021/05/25 04:54:43;;;;;;;;;;;;;;;20.26;46.42;101031.97;2211242;39;115234;-53
2021/05/25 04:56:15;;;;;;;;;;;;;;;20.32;46.36;101029.94;2207127;39;115726;-54
2021/05/25 04:57:46;;;;;;;;;;;;;;;20.36;45.96;101036.63;2207063;39;115789;-53
2021/05/25 04:59:18;;;;;;;;;;;;;;;20.40;46.03;101037.66;2209798;39;115617;-53
2021/05/25 05:00:50;;;;;;;;;;;;;;;20.44;45.94;101033.13;2208182;39;115405;-52
2021/05/25 05:02:21;;;;;;;;;;;;;;;20.48;46.02;101034.19;2204580;39;115611;-53
2021/05/25 05:03:54;;;;;;;;;;;;;;;20.52;45.40;101035.25;2210246;39;114499;-53
2021/05/25 05:05:26;;;;;;;;;;;;;;;20.57;45.36;101032.34;2210568;39;116147;-54
2021/05/25 05:06:57;;;;;;;;;;;;;;;20.62;45.44;101032.28;2203950;39;116066;-52
2021/05/25 05:08:29;;;;;;;;;;;;;;;20.66;45.16;101032.47;2206274;39;115768;-53
2021/05/25 05:10:03;;;;;;;;;;;;;;;20.70;45.46;101033.53;2205670;39;115517;-53
2021/05/25 05:11:35;;;;;;;;;;;;;;;20.74;45.66;101021.38;2197880;39;115801;-53
2021/05/25 05:13:08;;;;;;;;;;;;;;;20.78;45.44;101033.66;2203555;39;115876;-53
2021/05/25 05:14:40;;;;;;;;;;;;;;;20.82;45.31;101029.09;2205247;39;114594;-52
2021/05/25 05:16:12;;;;;;;;;;;;;;;20.87;45.05;101022.53;2207157;39;114653;-52
2021/05/25 05:17:44;;;;;;;;;;;;;;;20.90;45.08;101029.50;2210709;39;115458;-53
2021/05/25 05:19:17;;;;;;;;;;;;;;;20.94;44.94;101024.97;2208798;39;113994;-53
2021/05/25 05:20:49;;;;;;;;;;;;;;;20.99;45.39;101028.47;2207260;39;113609;-53
2021/05/25 05:22:21;;;;;;;;;;;;;;;21.04;45.76;101025.59;2204299;39;114838;-53
2021/05/25 05:23:54;;;;;;;;;;;;;;;21.08;45.63;101037.03;2209100;39;113894;-53
2021/05/25 05:25:26;;;;;;;;;;;;;;;21.13;45.19;101034.16;2207141;39;113781;-53
2021/05/25 05:26:58;;;;;;;;;;;;;;;21.16;44.98;101036.38;2208182;39;113797;-53
2021/05/25 05:28:30;;;;;;;;;;;;;;;21.19;44.62;101036.56;2209465;39;114246;-53
2021/05/25 05:30:02;;;;;;;;;;;;;;;21.23;44.79;101031.16;2209379;39;113718;-53
2021/05/25 05:31:34;;;;;;;;;;;;;;;21.28;44.70;101036.69;2207951;39;113803;-53
2021/05/25 05:33:08;;;;;;;;;;;;;;;21.31;44.35;101033.22;2209944;39;113812;-53
2021/05/25 05:34:40;;;;;;;;;;;;;;;21.35;44.35;101034.28;2207924;39;114083;-54
2021/05/25 05:36:16;;;;;;;;;;;;;;;21.37;44.65;101037.63;2206387;39;113782;-52
2021/05/25 05:37:47;;;;;;;;;;;;;;;21.41;44.32;101041.47;2210859;39;113779;-53
2021/05/25 05:39:19;;;;;;;;;;;;;;;21.46;44.29;101034.91;2213914;39;113762;-53
2021/05/25 05:40:51;;;;;;;;;;;;;;;21.49;44.12;101037.91;2211036;39;116154;-53
2021/05/25 05:42:23;;;;;;;;;;;;;;;21.52;44.37;101042.94;2209622;39;114885;-52
2021/05/25 05:43:55;;;;;;;;;;;;;;;21.56;44.46;101046.78;2206159;39;113878;-53
2021/05/25 05:45:27;;;;;;;;;;;;;;;21.59;43.90;101040.53;2206016;39;114925;-53
2021/05/25 05:46:59;;;;;;;;;;;;;;;21.62;44.09;101039.88;2210407;39;113983;-53
2021/05/25 05:48:31;;;;;;;;;;;;;;;21.65;44.30;101035.63;2208196;39;113814;-53
2021/05/25 05:50:10;;;;;;;;;;;;;;;21.69;43.89;101043.13;2207317;39;115427;-53
2021/05/25 05:51:41;;;;;;;;;;;;;;;21.72;43.99;101047.28;2209367;39;114807;-53
2021/05/25 05:53:13;;;;;;;;;;;;;;;21.74;43.53;101040.22;2210480;39;114811;-53
2021/05/25 05:54:46;;;;;;;;;;;;;;;21.79;43.88;101044.06;2209871;39;114447;-53
2021/05/25 05:56:18;;;;;;;;;;;;;;;21.81;43.66;101051.00;2211035;39;115139;-53
2021/05/25 05:57:52;;;;;;;;;;;;;;;21.84;43.55;101052.38;2206608;39;115157;-52
2021/05/25 05:59:24;;;;;;;;;;;;;;;21.87;43.60;101052.56;2204332;39;114420;-53
2021/05/25 06:00:55;;;;;;;;;;;;;;;21.90;43.32;101056.72;2204379;39;115018;-53
2021/05/25 06:02:27;;;;;;;;;;;;;;;21.93;43.58;101056.16;2208382;39;115778;-53
2021/05/25 06:03:59;;;;;;;;;;;;;;;21.95;43.59;101060.31;2210139;39;115610;-53
2021/05/25 06:05:31;;;;;;;;;;;;;;;21.98;43.27;101056.03;2207972;39;115534;-53
2021/05/25 06:07:03;;;;;;;;;;;;;;;22.02;43.04;101059.88;2210756;39;114595;-53
2021/05/25 06:08:34;;;;;;;;;;;;;;;22.03;43.34;101059.53;2208815;39;115565;-52
2021/05/25 06:10:07;;;;;;;;;;;;;;;22.07;43.27;101062.59;2207174;39;115517;-53
2021/05/25 06:11:39;;;;;;;;;;;;;;;22.07;43.37;101054.97;2208373;39;114542;-53
2021/05/25 06:13:10;;;;;;;;;;;;;;;22.10;43.13;101061.94;2210003;39;115508;-52
2021/05/25 06:14:42;;;;;;;;;;;;;;;22.12;43.01;101056.84;2210331;39;115522;-54
2021/05/25 06:16:14;;;;;;;;;;;;;;;22.14;43.02;101068.59;2210826;39;115510;-53
2021/05/25 06:17:46;;;;;;;;;;;;;;;22.15;42.86;101056.19;2209445;39;115469;-53
2021/05/25 06:19:17;;;;;;;;;;;;;;;22.17;43.08;101065.16;2208310;39;115625;-53
2021/05/25 06:20:49;;;;;;;;;;;;;;;22.17;42.93;101063.16;2213108;39;115796;-52
2021/05/25 06:22:22;;;;;;;;;;;;;;;22.18;42.79;101062.03;2211220;39;115746;-52
2021/05/25 06:23:54;;;;;;;;;;;;;;;22.20;42.94;101064.53;2214812;39;113659;-53
2021/05/25 06:25:26;;;;;;;;;;;;;;;22.21;42.82;101077.47;2217584;39;113722;-53
2021/05/25 06:26:58;;;;;;;;;;;;;;;22.22;42.79;101072.63;2216730;39;114141;-53
2021/05/25 06:28:30;;;;;;;;;;;;;;;22.22;42.76;101067.00;2216735;39;114123;-52
2021/05/25 06:30:02;;;;;;;;;;;;;;;22.23;43.01;101075.16;2203192;39;113767;-52
2021/05/25 06:31:34;;;;;;;;;;;;;;;22.22;42.79;101076.28;2207051;39;113771;-53
2021/05/25 06:33:06;;;;;;;;;;;;;;;22.23;42.79;101082.75;2205127;39;113837;-53
2021/05/25 06:34:41;;;;;;;;;;;;;;;22.23;42.83;101082.75;2210762;39;113842;-53
2021/05/25 06:36:13;;;;;;;;;;;;;;;22.23;42.70;101080.78;2203552;39;113922;-53
2021/05/25 06:37:45;;;;;;;;;;;;;;;22.22;42.62;101087.53;2211837;39;113872;-52
2021/05/25 06:39:16;;;;;;;;;;;;;;;22.21;42.86;101083.09;2216225;39;113733;-53
2021/05/25 06:40:48;;;;;;;;;;;;;;;22.21;42.81;101082.25;2211508;39;113893;-53
2021/05/25 06:42:20;;;;;;;;;;;;;;;22.21;42.77;101085.06;2217262;39;113562;-52
2021/05/25 06:43:51;;;;;;;;;;;;;;;22.20;42.75;101087.03;2215052;39;113856;-53
2021/05/25 06:45:25;;;;;;;;;;;;;;;22.20;42.58;101092.69;2215533;39;113807;-52
2021/05/25 06:46:57;;;;;;;;;;;;;;;22.19;43.13;101085.38;2210576;39;114410;-52
2021/05/25 06:48:29;;;;;;;;;;;;;;;22.22;43.17;101095.16;2214540;39;114870;-53
2021/05/25 06:50:01;;;;;;;;;;;;;;;22.18;42.91;101084.53;2215972;39;114859;-53
2021/05/25 06:51:34;;;;;;;;;;;;;;;22.15;42.58;101089.97;2209582;39;115104;-52
2021/05/25 06:53:05;;;;;;;;;;;;;;;22.14;42.65;101083.50;2213040;39;113860;-52
2021/05/25 06:54:37;;;;;;;;;;;;;;;22.13;42.37;101093.09;2215855;39;114706;-52
2021/05/25 06:56:09;;;;;;;;;;;;;;;22.14;42.07;101093.94;2215760;39;113846;-52
2021/05/25 06:57:44;;;;;;;;;;;;;;;22.11;41.80;101094.56;2214606;39;115358;-57
2021/05/25 06:59:21;;;;;;;;;;;;;;;22.11;42.24;101094.56;2216164;39;114199;-53
2021/05/25 07:00:53;;;;;;;;;;;;;;;22.08;41.88;101096.00;2210107;39;114798;-52
2021/05/25 07:02:25;;;;;;;;;;;;;;;22.04;41.88;101094.97;2214744;39;113822;-52
2021/05/25 07:03:57;;;;;;;;;;;;;;;22.02;41.59;101104.91;2216375;39;114733;-53
2021/05/25 07:05:28;;;;;;;;;;;;;;;21.98;41.51;101101.91;2211028;39;113950;-52
2021/05/25 07:07:00;;;;;;;;;;;;;;;21.94;41.59;101100.81;2213395;39;114948;-53
2021/05/25 07:08:34;;;;;;;;;;;;;;;21.93;41.54;101101.16;2209617;39;115949;-53
2021/05/25 07:10:06;;;;;;;;;;;;;;;21.88;41.51;101098.41;2207911;39;115494;-52
2021/05/25 07:11:38;;;;;;;;;;;;;;;21.87;41.18;101099.56;2207914;39;115601;-52
2021/05/25 07:13:12;;;;;;;;;;;;;;;21.84;41.38;101106.66;2207743;39;115948;-52
2021/05/25 07:14:45;;;;;;;;;;;;;;;21.84;41.25;101105.81;2215426;39;116014;-53
2021/05/25 07:16:17;;;;;;;;;;;;;;;21.81;41.16;101110.09;2215167;39;116014;-52
2021/05/25 07:19:27;;;;;;;;;;;;;;;21.76;41.12;101106.56;2202216;39;116040;-53
2021/05/25 07:20:59;;;;;;;;;;;;;;;21.74;41.36;101107.72;2212832;39;116386;-53
2021/05/25 07:22:35;;;;;;;;;;;;;;;21.75;41.16;101108.53;2215923;39;114717;-53
2021/05/25 07:24:07;;;;;;;;;;;;;;;21.72;41.11;101115.59;2212227;39;114816;-52
2021/05/25 07:25:39;;;;;;;;;;;;;;;21.71;41.05;101113.94;2215182;39;116693;-52
2021/05/25 07:27:11;;;;;;;;;;;;;;;21.69;40.80;101109.78;2214743;39;114823;-53
2021/05/25 07:28:50;;;;;;;;;;;;;;;21.65;40.66;101109.59;2211381;39;115920;-53
2021/05/25 07:30:22;;;;;;;;;;;;;;;21.65;40.63;101123.63;2213257;39;114289;-52
2021/05/25 07:31:54;;;;;;;;;;;;;;;21.64;40.64;101123.94;2204049;39;113649;-53
2021/05/25 07:33:26;;;;;;;;;;;;;;;21.61;40.86;101118.94;2211967;39;113804;-53
2021/05/25 07:34:58;;;;;;;;;;;;;;;21.60;41.01;101125.72;2208989;39;113780;-52
2021/05/25 07:36:30;;;;;;;;;;;;;;;21.56;40.84;101125.50;2213774;39;113641;-52
2021/05/25 07:38:02;;;;;;;;;;;;;;;21.55;40.88;101123.00;2215950;39;113981;-53
2021/05/25 07:39:34;;;;;;;;;;;;;;;21.55;40.90;101123.00;2217145;39;114758;-53
2021/05/25 07:41:06;;;;;;;;;;;;;;;21.49;41.27;101125.06;2209660;39;113784;-53
2021/05/25 07:42:38;;;;;;;;;;;;;;;21.52;40.98;101127.28;2214385;39;114024;-53
2021/05/25 07:44:09;;;;;;;;;;;;;;;21.52;41.25;101132.06;2215211;39;113839;-54
2021/05/25 07:45:42;;;;;;;;;;;;;;;21.49;41.72;101133.50;2213502;39;114028;-52
2021/05/25 07:47:14;;;;;;;;;;;;;;;21.47;41.85;101144.25;2208185;39;113793;-52
2021/05/25 07:48:46;;;;;;;;;;;;;;;21.50;41.71;101134.34;2213010;39;113997;-53
2021/05/25 07:50:18;;;;;;;;;;;;;;;21.49;41.62;101138.28;2215891;39;113956;-53
2021/05/25 07:51:50;;;;;;;;;;;;;;;21.49;41.66;101147.56;2208058;39;114934;-52
2021/05/25 07:53:22;;;;;;;;;;;;;;;21.45;42.06;101134.44;2212463;39;115207;-53
2021/05/25 07:54:54;;;;;;;;;;;;;;;21.47;42.18;101141.44;2214658;39;114011;-53
2021/05/25 07:56:25;;;;;;;;;;;;;;;21.46;42.35;101142.56;2206805;39;113954;-53